sensor_id;sensor_type;location;lat;lon;timestamp;P1;durP1;ratioP1;P2;durP2;ratioP2
13085;SDS011;6609;49.882;8.664;2023-05-14T00:01:08;5.57;;;4.80;;
13085;SDS011;6609;49.882;8.664;2023-05-14T00:03:36;5.03;;;4.60;;
13085;SDS011;6609;49.882;8.664;2023-05-14T00:06:04;5.90;;;4.47;;
13085;SDS011;6609;49.882;8.664;2023-05-14T00:08:32;6.10;;;4.60;;
13085;SDS011;6609;49.882;8.664;2023-05-14T00:11:01;9.50;;;5.00;;
13085;SDS011;6609;49.882;8.664;2023-05-14T00:13:28;6.80;;;4.43;;
13085;SDS011;6609;49.882;8.664;2023-05-14T00:15:55;7.60;;;4.90;;
13085;SDS011;6609;49.882;8.664;2023-05-14T00:18:22;5.23;;;4.60;;
13085;SDS011;6609;49.882;8.664;2023-05-14T00:20:49;5.47;;;4.27;;
13085;SDS011;6609;49.882;8.664;2023-05-14T00:23:18;6.83;;;4.23;;
13085;SDS011;6609;49.882;8.664;2023-05-14T00:25:46;6.27;;;4.50;;
13085;SDS011;6609;49.882;8.664;2023-05-14T00:28:14;6.63;;;4.30;;
13085;SDS011;6609;49.882;8.664;2023-05-14T00:30:41;5.60;;;4.27;;
13085;SDS011;6609;49.882;8.664;2023-05-14T00:33:08;5.60;;;4.27;;
13085;SDS011;6609;49.882;8.664;2023-05-14T00:35:35;4.90;;;4.40;;
13085;SDS011;6609;49.882;8.664;2023-05-14T00:38:02;9.00;;;4.93;;
13085;SDS011;6609;49.882;8.664;2023-05-14T00:40:29;4.77;;;4.10;;
13085;SDS011;6609;49.882;8.664;2023-05-14T00:42:57;5.57;;;4.47;;
13085;SDS011;6609;49.882;8.664;2023-05-14T00:45:25;5.17;;;4.33;;
13085;SDS011;6609;49.882;8.664;2023-05-14T00:47:52;5.20;;;4.33;;
13085;SDS011;6609;49.882;8.664;2023-05-14T00:50:20;8.03;;;4.63;;
13085;SDS011;6609;49.882;8.664;2023-05-14T00:52:47;6.60;;;4.60;;
13085;SDS011;6609;49.882;8.664;2023-05-14T00:55:14;8.33;;;4.83;;
13085;SDS011;6609;49.882;8.664;2023-05-14T00:57:41;11.33;;;5.00;;
13085;SDS011;6609;49.882;8.664;2023-05-14T01:00:09;8.23;;;5.70;;
13085;SDS011;6609;49.882;8.664;2023-05-14T01:02:40;9.50;;;6.87;;
13085;SDS011;6609;49.882;8.664;2023-05-14T01:05:08;11.27;;;6.37;;
13085;SDS011;6609;49.882;8.664;2023-05-14T01:07:38;8.87;;;5.70;;
13085;SDS011;6609;49.882;8.664;2023-05-14T01:10:14;7.37;;;5.17;;
13085;SDS011;6609;49.882;8.664;2023-05-14T01:12:47;7.33;;;4.93;;
13085;SDS011;6609;49.882;8.664;2023-05-14T01:15:29;5.60;;;4.40;;
13085;SDS011;6609;49.882;8.664;2023-05-14T01:17:59;9.17;;;5.53;;
13085;SDS011;6609;49.882;8.664;2023-05-14T01:20:29;6.40;;;4.93;;
13085;SDS011;6609;49.882;8.664;2023-05-14T01:22:57;7.27;;;5.00;;
13085;SDS011;6609;49.882;8.664;2023-05-14T01:25:25;8.93;;;4.50;;
13085;SDS011;6609;49.882;8.664;2023-05-14T01:27:54;4.67;;;4.27;;
13085;SDS011;6609;49.882;8.664;2023-05-14T01:30:27;6.53;;;4.70;;
13085;SDS011;6609;49.882;8.664;2023-05-14T01:32:57;5.73;;;5.00;;
13085;SDS011;6609;49.882;8.664;2023-05-14T01:35:27;7.00;;;4.80;;
13085;SDS011;6609;49.882;8.664;2023-05-14T01:37:55;5.77;;;4.70;;
13085;SDS011;6609;49.882;8.664;2023-05-14T01:40:25;6.40;;;4.70;;
13085;SDS011;6609;49.882;8.664;2023-05-14T01:42:52;6.90;;;4.37;;
13085;SDS011;6609;49.882;8.664;2023-05-14T01:45:21;5.73;;;4.77;;
13085;SDS011;6609;49.882;8.664;2023-05-14T01:47:48;7.73;;;4.57;;
13085;SDS011;6609;49.882;8.664;2023-05-14T01:50:15;5.97;;;4.77;;
13085;SDS011;6609;49.882;8.664;2023-05-14T01:52:42;6.83;;;4.80;;
13085;SDS011;6609;49.882;8.664;2023-05-14T01:55:11;8.03;;;5.00;;
13085;SDS011;6609;49.882;8.664;2023-05-14T01:57:38;7.77;;;4.87;;
13085;SDS011;6609;49.882;8.664;2023-05-14T02:00:05;5.83;;;4.83;;
13085;SDS011;6609;49.882;8.664;2023-05-14T02:02:33;5.77;;;4.20;;
13085;SDS011;6609;49.882;8.664;2023-05-14T02:05:00;8.87;;;5.00;;
13085;SDS011;6609;49.882;8.664;2023-05-14T02:07:27;7.77;;;5.03;;
13085;SDS011;6609;49.882;8.664;2023-05-14T02:09:54;7.43;;;5.47;;
13085;SDS011;6609;49.882;8.664;2023-05-14T02:12:23;7.27;;;5.73;;
13085;SDS011;6609;49.882;8.664;2023-05-14T02:14:50;7.03;;;5.30;;
13085;SDS011;6609;49.882;8.664;2023-05-14T02:17:17;7.27;;;5.20;;
13085;SDS011;6609;49.882;8.664;2023-05-14T02:19:44;8.77;;;5.53;;
13085;SDS011;6609;49.882;8.664;2023-05-14T02:22:11;10.13;;;5.73;;
13085;SDS011;6609;49.882;8.664;2023-05-14T02:24:38;8.30;;;6.07;;
13085;SDS011;6609;49.882;8.664;2023-05-14T02:27:06;7.63;;;5.37;;
13085;SDS011;6609;49.882;8.664;2023-05-14T02:29:34;10.37;;;5.40;;
13085;SDS011;6609;49.882;8.664;2023-05-14T02:32:01;9.43;;;6.10;;
13085;SDS011;6609;49.882;8.664;2023-05-14T02:34:28;6.50;;;5.70;;
13085;SDS011;6609;49.882;8.664;2023-05-14T02:36:57;7.80;;;5.70;;
13085;SDS011;6609;49.882;8.664;2023-05-14T02:39:24;7.70;;;5.60;;
13085;SDS011;6609;49.882;8.664;2023-05-14T02:41:51;7.47;;;6.10;;
13085;SDS011;6609;49.882;8.664;2023-05-14T02:44:18;8.80;;;6.40;;
13085;SDS011;6609;49.882;8.664;2023-05-14T02:46:46;9.73;;;6.97;;
13085;SDS011;6609;49.882;8.664;2023-05-14T02:49:13;7.83;;;6.10;;
13085;SDS011;6609;49.882;8.664;2023-05-14T02:51:39;7.97;;;6.00;;
13085;SDS011;6609;49.882;8.664;2023-05-14T02:54:06;7.97;;;6.20;;
13085;SDS011;6609;49.882;8.664;2023-05-14T02:56:33;7.27;;;6.30;;
13085;SDS011;6609;49.882;8.664;2023-05-14T02:59:00;6.90;;;5.60;;
13085;SDS011;6609;49.882;8.664;2023-05-14T03:01:27;7.97;;;5.87;;
13085;SDS011;6609;49.882;8.664;2023-05-14T03:03:55;8.20;;;5.83;;
13085;SDS011;6609;49.882;8.664;2023-05-14T03:06:22;8.73;;;6.43;;
13085;SDS011;6609;49.882;8.664;2023-05-14T03:08:49;7.47;;;5.63;;
13085;SDS011;6609;49.882;8.664;2023-05-14T03:11:16;7.23;;;5.40;;
13085;SDS011;6609;49.882;8.664;2023-05-14T03:13:42;10.13;;;5.77;;
13085;SDS011;6609;49.882;8.664;2023-05-14T03:16:10;9.43;;;6.57;;
13085;SDS011;6609;49.882;8.664;2023-05-14T03:18:37;9.27;;;5.60;;
13085;SDS011;6609;49.882;8.664;2023-05-14T03:21:05;8.90;;;6.00;;
13085;SDS011;6609;49.882;8.664;2023-05-14T03:23:33;7.57;;;5.37;;
13085;SDS011;6609;49.882;8.664;2023-05-14T03:26:00;8.70;;;5.13;;
13085;SDS011;6609;49.882;8.664;2023-05-14T03:28:27;7.50;;;5.63;;
13085;SDS011;6609;49.882;8.664;2023-05-14T03:30:54;9.67;;;5.83;;
13085;SDS011;6609;49.882;8.664;2023-05-14T03:33:21;8.10;;;5.67;;
13085;SDS011;6609;49.882;8.664;2023-05-14T03:35:48;8.80;;;6.20;;
13085;SDS011;6609;49.882;8.664;2023-05-14T03:38:17;7.90;;;5.83;;
13085;SDS011;6609;49.882;8.664;2023-05-14T03:40:44;10.10;;;6.20;;
13085;SDS011;6609;49.882;8.664;2023-05-14T03:43:11;10.27;;;6.47;;
13085;SDS011;6609;49.882;8.664;2023-05-14T03:45:38;10.20;;;6.67;;
13085;SDS011;6609;49.882;8.664;2023-05-14T03:48:05;8.93;;;6.33;;
13085;SDS011;6609;49.882;8.664;2023-05-14T03:50:33;8.97;;;6.27;;
13085;SDS011;6609;49.882;8.664;2023-05-14T03:53:00;7.83;;;6.17;;
13085;SDS011;6609;49.882;8.664;2023-05-14T03:55:28;8.97;;;6.43;;
13085;SDS011;6609;49.882;8.664;2023-05-14T03:57:55;7.20;;;5.73;;
13085;SDS011;6609;49.882;8.664;2023-05-14T04:00:22;7.10;;;5.73;;
13085;SDS011;6609;49.882;8.664;2023-05-14T04:02:49;7.87;;;5.77;;
13085;SDS011;6609;49.882;8.664;2023-05-14T04:05:16;7.00;;;6.17;;
13085;SDS011;6609;49.882;8.664;2023-05-14T04:07:43;8.87;;;6.37;;
13085;SDS011;6609;49.882;8.664;2023-05-14T04:10:11;6.67;;;6.03;;
13085;SDS011;6609;49.882;8.664;2023-05-14T04:12:39;7.53;;;5.70;;
13085;SDS011;6609;49.882;8.664;2023-05-14T04:15:07;7.00;;;5.87;;
13085;SDS011;6609;49.882;8.664;2023-05-14T04:17:34;7.13;;;6.10;;
13085;SDS011;6609;49.882;8.664;2023-05-14T04:20:01;8.63;;;6.00;;
13085;SDS011;6609;49.882;8.664;2023-05-14T04:22:28;6.77;;;6.00;;
13085;SDS011;6609;49.882;8.664;2023-05-14T04:24:56;11.67;;;6.10;;
13085;SDS011;6609;49.882;8.664;2023-05-14T04:27:23;8.67;;;6.27;;
13085;SDS011;6609;49.882;8.664;2023-05-14T04:29:51;6.27;;;5.67;;
13085;SDS011;6609;49.882;8.664;2023-05-14T04:32:18;6.27;;;5.50;;
13085;SDS011;6609;49.882;8.664;2023-05-14T04:34:45;9.43;;;5.20;;
13085;SDS011;6609;49.882;8.664;2023-05-14T04:37:12;7.53;;;5.23;;
13085;SDS011;6609;49.882;8.664;2023-05-14T04:39:40;8.33;;;5.53;;
13085;SDS011;6609;49.882;8.664;2023-05-14T04:42:07;7.20;;;5.43;;
13085;SDS011;6609;49.882;8.664;2023-05-14T04:44:35;7.13;;;5.87;;
13085;SDS011;6609;49.882;8.664;2023-05-14T04:47:04;6.63;;;5.53;;
13085;SDS011;6609;49.882;8.664;2023-05-14T04:49:31;6.40;;;5.10;;
13085;SDS011;6609;49.882;8.664;2023-05-14T04:51:59;7.90;;;5.97;;
13085;SDS011;6609;49.882;8.664;2023-05-14T04:54:26;6.80;;;5.90;;
13085;SDS011;6609;49.882;8.664;2023-05-14T04:56:53;9.00;;;6.03;;
13085;SDS011;6609;49.882;8.664;2023-05-14T04:59:20;12.97;;;6.33;;
13085;SDS011;6609;49.882;8.664;2023-05-14T05:01:47;7.53;;;6.40;;
13085;SDS011;6609;49.882;8.664;2023-05-14T05:04:17;11.93;;;6.87;;
13085;SDS011;6609;49.882;8.664;2023-05-14T05:06:44;7.87;;;6.70;;
13085;SDS011;6609;49.882;8.664;2023-05-14T05:09:11;7.57;;;6.20;;
13085;SDS011;6609;49.882;8.664;2023-05-14T05:11:38;9.23;;;7.30;;
13085;SDS011;6609;49.882;8.664;2023-05-14T05:14:05;8.53;;;6.43;;
13085;SDS011;6609;49.882;8.664;2023-05-14T05:16:32;8.43;;;6.60;;
13085;SDS011;6609;49.882;8.664;2023-05-14T05:18:59;9.20;;;7.43;;
13085;SDS011;6609;49.882;8.664;2023-05-14T05:21:27;8.27;;;7.10;;
13085;SDS011;6609;49.882;8.664;2023-05-14T05:23:54;9.20;;;6.50;;
13085;SDS011;6609;49.882;8.664;2023-05-14T05:26:21;8.80;;;7.20;;
13085;SDS011;6609;49.882;8.664;2023-05-14T05:28:50;8.77;;;7.10;;
13085;SDS011;6609;49.882;8.664;2023-05-14T05:31:17;7.60;;;6.30;;
13085;SDS011;6609;49.882;8.664;2023-05-14T05:33:44;8.93;;;6.80;;
13085;SDS011;6609;49.882;8.664;2023-05-14T05:36:11;8.27;;;6.60;;
13085;SDS011;6609;49.882;8.664;2023-05-14T05:38:40;8.77;;;7.73;;
13085;SDS011;6609;49.882;8.664;2023-05-14T05:41:07;7.40;;;6.60;;
13085;SDS011;6609;49.882;8.664;2023-05-14T05:43:34;8.17;;;6.40;;
13085;SDS011;6609;49.882;8.664;2023-05-14T05:46:01;8.07;;;6.10;;
13085;SDS011;6609;49.882;8.664;2023-05-14T05:48:28;9.80;;;6.20;;
13085;SDS011;6609;49.882;8.664;2023-05-14T05:50:55;7.33;;;5.70;;
13085;SDS011;6609;49.882;8.664;2023-05-14T05:53:22;7.97;;;6.13;;
13085;SDS011;6609;49.882;8.664;2023-05-14T05:55:50;6.73;;;5.63;;
13085;SDS011;6609;49.882;8.664;2023-05-14T05:58:17;10.50;;;6.53;;
13085;SDS011;6609;49.882;8.664;2023-05-14T06:00:45;7.50;;;5.30;;
13085;SDS011;6609;49.882;8.664;2023-05-14T06:03:12;9.83;;;5.77;;
13085;SDS011;6609;49.882;8.664;2023-05-14T06:05:40;8.13;;;5.30;;
13085;SDS011;6609;49.882;8.664;2023-05-14T06:08:08;6.77;;;4.97;;
13085;SDS011;6609;49.882;8.664;2023-05-14T06:10:34;6.87;;;5.20;;
13085;SDS011;6609;49.882;8.664;2023-05-14T06:13:03;5.40;;;4.90;;
13085;SDS011;6609;49.882;8.664;2023-05-14T06:15:30;8.33;;;4.90;;
13085;SDS011;6609;49.882;8.664;2023-05-14T06:17:57;7.03;;;4.67;;
13085;SDS011;6609;49.882;8.664;2023-05-14T06:20:24;4.40;;;3.90;;
13085;SDS011;6609;49.882;8.664;2023-05-14T06:22:51;5.27;;;3.97;;
13085;SDS011;6609;49.882;8.664;2023-05-14T06:25:18;5.93;;;4.03;;
13085;SDS011;6609;49.882;8.664;2023-05-14T06:27:46;5.30;;;4.17;;
13085;SDS011;6609;49.882;8.664;2023-05-14T06:30:14;4.23;;;3.43;;
13085;SDS011;6609;49.882;8.664;2023-05-14T06:32:41;4.27;;;3.80;;
13085;SDS011;6609;49.882;8.664;2023-05-14T06:35:08;4.10;;;3.50;;
13085;SDS011;6609;49.882;8.664;2023-05-14T06:37:35;3.43;;;2.87;;
13085;SDS011;6609;49.882;8.664;2023-05-14T06:40:02;5.13;;;3.50;;
13085;SDS011;6609;49.882;8.664;2023-05-14T06:42:29;3.03;;;2.83;;
13085;SDS011;6609;49.882;8.664;2023-05-14T06:44:55;6.57;;;3.47;;
13085;SDS011;6609;49.882;8.664;2023-05-14T06:47:24;4.77;;;3.43;;
13085;SDS011;6609;49.882;8.664;2023-05-14T06:49:50;4.97;;;3.30;;
13085;SDS011;6609;49.882;8.664;2023-05-14T06:52:18;3.63;;;3.10;;
13085;SDS011;6609;49.882;8.664;2023-05-14T06:54:44;3.73;;;3.30;;
13085;SDS011;6609;49.882;8.664;2023-05-14T06:57:11;4.63;;;3.47;;
13085;SDS011;6609;49.882;8.664;2023-05-14T06:59:38;3.00;;;2.73;;
13085;SDS011;6609;49.882;8.664;2023-05-14T07:02:05;3.67;;;2.70;;
13085;SDS011;6609;49.882;8.664;2023-05-14T07:04:33;3.63;;;3.07;;
13085;SDS011;6609;49.882;8.664;2023-05-14T07:07:00;4.27;;;3.10;;
13085;SDS011;6609;49.882;8.664;2023-05-14T07:09:27;3.37;;;3.07;;
13085;SDS011;6609;49.882;8.664;2023-05-14T07:11:54;4.77;;;3.13;;
13085;SDS011;6609;49.882;8.664;2023-05-14T07:14:21;3.10;;;2.80;;
13085;SDS011;6609;49.882;8.664;2023-05-14T07:16:47;4.07;;;3.63;;
13085;SDS011;6609;49.882;8.664;2023-05-14T07:19:14;4.47;;;3.10;;
13085;SDS011;6609;49.882;8.664;2023-05-14T07:21:42;5.07;;;3.60;;
13085;SDS011;6609;49.882;8.664;2023-05-14T07:24:09;3.13;;;2.83;;
13085;SDS011;6609;49.882;8.664;2023-05-14T07:26:36;3.03;;;2.80;;
13085;SDS011;6609;49.882;8.664;2023-05-14T07:29:03;4.80;;;3.07;;
13085;SDS011;6609;49.882;8.664;2023-05-14T07:31:30;4.07;;;2.97;;
13085;SDS011;6609;49.882;8.664;2023-05-14T07:33:57;4.27;;;3.30;;
13085;SDS011;6609;49.882;8.664;2023-05-14T07:36:24;4.00;;;3.47;;
13085;SDS011;6609;49.882;8.664;2023-05-14T07:38:52;4.37;;;3.27;;
13085;SDS011;6609;49.882;8.664;2023-05-14T07:41:19;6.17;;;3.57;;
13085;SDS011;6609;49.882;8.664;2023-05-14T07:43:46;3.57;;;3.10;;
13085;SDS011;6609;49.882;8.664;2023-05-14T07:46:13;4.17;;;3.30;;
13085;SDS011;6609;49.882;8.664;2023-05-14T07:48:40;5.30;;;3.07;;
13085;SDS011;6609;49.882;8.664;2023-05-14T07:51:07;4.47;;;2.77;;
13085;SDS011;6609;49.882;8.664;2023-05-14T07:53:34;3.80;;;3.03;;
13085;SDS011;6609;49.882;8.664;2023-05-14T07:56:03;6.93;;;3.30;;
13085;SDS011;6609;49.882;8.664;2023-05-14T07:58:30;3.23;;;2.60;;
13085;SDS011;6609;49.882;8.664;2023-05-14T08:00:57;6.87;;;3.80;;
13085;SDS011;6609;49.882;8.664;2023-05-14T08:03:25;4.20;;;3.23;;
13085;SDS011;6609;49.882;8.664;2023-05-14T08:05:52;4.13;;;3.20;;
13085;SDS011;6609;49.882;8.664;2023-05-14T08:08:20;3.37;;;2.97;;
13085;SDS011;6609;49.882;8.664;2023-05-14T08:10:47;4.27;;;3.63;;
13085;SDS011;6609;49.882;8.664;2023-05-14T08:13:15;4.43;;;3.03;;
13085;SDS011;6609;49.882;8.664;2023-05-14T08:15:42;4.57;;;3.10;;
13085;SDS011;6609;49.882;8.664;2023-05-14T08:18:08;3.87;;;3.47;;
13085;SDS011;6609;49.882;8.664;2023-05-14T08:20:35;3.93;;;2.93;;
13085;SDS011;6609;49.882;8.664;2023-05-14T08:23:02;3.80;;;3.40;;
13085;SDS011;6609;49.882;8.664;2023-05-14T08:25:29;3.40;;;3.10;;
13085;SDS011;6609;49.882;8.664;2023-05-14T08:27:56;4.80;;;2.90;;
13085;SDS011;6609;49.882;8.664;2023-05-14T08:30:25;3.23;;;2.93;;
13085;SDS011;6609;49.882;8.664;2023-05-14T08:32:52;3.33;;;2.93;;
13085;SDS011;6609;49.882;8.664;2023-05-14T08:35:19;3.33;;;3.03;;
13085;SDS011;6609;49.882;8.664;2023-05-14T08:37:45;4.60;;;3.40;;
13085;SDS011;6609;49.882;8.664;2023-05-14T08:40:14;3.93;;;2.83;;
13085;SDS011;6609;49.882;8.664;2023-05-14T08:42:41;3.70;;;2.90;;
13085;SDS011;6609;49.882;8.664;2023-05-14T08:45:10;4.67;;;3.47;;
13085;SDS011;6609;49.882;8.664;2023-05-14T08:47:44;3.70;;;3.03;;
13085;SDS011;6609;49.882;8.664;2023-05-14T08:50:13;3.43;;;3.13;;
13085;SDS011;6609;49.882;8.664;2023-05-14T08:52:40;4.13;;;2.93;;
13085;SDS011;6609;49.882;8.664;2023-05-14T08:55:07;3.83;;;2.97;;
13085;SDS011;6609;49.882;8.664;2023-05-14T08:57:34;4.90;;;3.00;;
13085;SDS011;6609;49.882;8.664;2023-05-14T09:00:02;40.37;;;5.17;;
13085;SDS011;6609;49.882;8.664;2023-05-14T09:02:32;17.37;;;3.80;;
13085;SDS011;6609;49.882;8.664;2023-05-14T09:05:01;5.43;;;2.93;;
13085;SDS011;6609;49.882;8.664;2023-05-14T09:07:28;5.07;;;3.23;;
13085;SDS011;6609;49.882;8.664;2023-05-14T09:09:55;3.47;;;3.17;;
13085;SDS011;6609;49.882;8.664;2023-05-14T09:12:22;3.07;;;2.77;;
13085;SDS011;6609;49.882;8.664;2023-05-14T09:14:49;3.40;;;3.10;;
13085;SDS011;6609;49.882;8.664;2023-05-14T09:17:16;3.60;;;3.20;;
13085;SDS011;6609;49.882;8.664;2023-05-14T09:19:44;4.50;;;3.60;;
13085;SDS011;6609;49.882;8.664;2023-05-14T09:22:15;5.20;;;3.40;;
13085;SDS011;6609;49.882;8.664;2023-05-14T09:24:42;3.43;;;2.97;;
13085;SDS011;6609;49.882;8.664;2023-05-14T09:27:14;3.27;;;2.93;;
13085;SDS011;6609;49.882;8.664;2023-05-14T09:29:43;4.47;;;2.73;;
13085;SDS011;6609;49.882;8.664;2023-05-14T09:32:10;4.30;;;3.40;;
13085;SDS011;6609;49.882;8.664;2023-05-14T09:34:37;3.70;;;2.90;;
13085;SDS011;6609;49.882;8.664;2023-05-14T09:37:04;3.63;;;3.03;;
13085;SDS011;6609;49.882;8.664;2023-05-14T09:39:33;3.50;;;3.13;;
13085;SDS011;6609;49.882;8.664;2023-05-14T09:42:01;4.50;;;2.93;;
13085;SDS011;6609;49.882;8.664;2023-05-14T09:44:28;3.10;;;2.80;;
13085;SDS011;6609;49.882;8.664;2023-05-14T09:46:55;3.77;;;2.80;;
13085;SDS011;6609;49.882;8.664;2023-05-14T09:49:22;4.37;;;3.17;;
13085;SDS011;6609;49.882;8.664;2023-05-14T09:51:49;3.73;;;3.10;;
13085;SDS011;6609;49.882;8.664;2023-05-14T09:54:17;4.03;;;3.17;;
13085;SDS011;6609;49.882;8.664;2023-05-14T09:56:45;4.00;;;3.10;;
13085;SDS011;6609;49.882;8.664;2023-05-14T09:59:12;3.57;;;2.70;;
13085;SDS011;6609;49.882;8.664;2023-05-14T10:01:39;3.63;;;2.80;;
13085;SDS011;6609;49.882;8.664;2023-05-14T10:04:07;5.20;;;3.50;;
13085;SDS011;6609;49.882;8.664;2023-05-14T10:06:36;4.10;;;2.83;;
13085;SDS011;6609;49.882;8.664;2023-05-14T10:09:04;4.23;;;2.70;;
13085;SDS011;6609;49.882;8.664;2023-05-14T10:11:37;3.83;;;2.40;;
13085;SDS011;6609;49.882;8.664;2023-05-14T10:14:09;2.93;;;2.63;;
13085;SDS011;6609;49.882;8.664;2023-05-14T10:16:42;2.80;;;2.50;;
13085;SDS011;6609;49.882;8.664;2023-05-14T10:19:10;3.20;;;2.87;;
13085;SDS011;6609;49.882;8.664;2023-05-14T10:21:38;3.03;;;2.37;;
13085;SDS011;6609;49.882;8.664;2023-05-14T10:24:06;3.27;;;2.77;;
13085;SDS011;6609;49.882;8.664;2023-05-14T10:26:34;3.63;;;3.03;;
13085;SDS011;6609;49.882;8.664;2023-05-14T10:29:03;2.63;;;2.43;;
13085;SDS011;6609;49.882;8.664;2023-05-14T10:31:48;2.77;;;2.40;;
13085;SDS011;6609;49.882;8.664;2023-05-14T10:37:05;3.17;;;2.80;;
13085;SDS011;6609;49.882;8.664;2023-05-14T10:39:40;4.77;;;3.20;;
13085;SDS011;6609;49.882;8.664;2023-05-14T10:42:07;3.63;;;2.80;;
13085;SDS011;6609;49.882;8.664;2023-05-14T10:44:34;3.50;;;3.17;;
13085;SDS011;6609;49.882;8.664;2023-05-14T10:47:06;4.23;;;3.00;;
13085;SDS011;6609;49.882;8.664;2023-05-14T10:49:32;3.47;;;2.90;;
13085;SDS011;6609;49.882;8.664;2023-05-14T10:51:59;5.47;;;3.00;;
13085;SDS011;6609;49.882;8.664;2023-05-14T10:54:27;3.70;;;3.20;;
13085;SDS011;6609;49.882;8.664;2023-05-14T10:56:57;3.27;;;2.80;;
13085;SDS011;6609;49.882;8.664;2023-05-14T10:59:25;2.93;;;2.60;;
13085;SDS011;6609;49.882;8.664;2023-05-14T11:01:52;4.03;;;2.60;;
13085;SDS011;6609;49.882;8.664;2023-05-14T11:04:23;5.10;;;2.87;;
13085;SDS011;6609;49.882;8.664;2023-05-14T11:06:50;4.93;;;2.83;;
13085;SDS011;6609;49.882;8.664;2023-05-14T11:09:17;3.00;;;2.50;;
13085;SDS011;6609;49.882;8.664;2023-05-14T11:11:46;3.33;;;2.60;;
13085;SDS011;6609;49.882;8.664;2023-05-14T11:14:13;3.03;;;2.73;;
13085;SDS011;6609;49.882;8.664;2023-05-14T11:16:40;2.73;;;2.10;;
13085;SDS011;6609;49.882;8.664;2023-05-14T11:19:07;3.40;;;2.53;;
13085;SDS011;6609;49.882;8.664;2023-05-14T11:21:35;4.00;;;2.50;;
13085;SDS011;6609;49.882;8.664;2023-05-14T11:24:02;3.07;;;2.20;;
13085;SDS011;6609;49.882;8.664;2023-05-14T11:26:30;2.40;;;2.20;;
13085;SDS011;6609;49.882;8.664;2023-05-14T11:28:57;2.30;;;2.10;;
13085;SDS011;6609;49.882;8.664;2023-05-14T11:31:24;2.53;;;2.20;;
13085;SDS011;6609;49.882;8.664;2023-05-14T11:33:51;6.07;;;2.33;;
13085;SDS011;6609;49.882;8.664;2023-05-14T11:36:18;2.20;;;2.00;;
13085;SDS011;6609;49.882;8.664;2023-05-14T11:38:46;2.40;;;2.20;;
13085;SDS011;6609;49.882;8.664;2023-05-14T11:41:15;3.20;;;2.53;;
13085;SDS011;6609;49.882;8.664;2023-05-14T11:43:44;3.40;;;2.30;;
13085;SDS011;6609;49.882;8.664;2023-05-14T11:46:15;2.50;;;2.30;;
13085;SDS011;6609;49.882;8.664;2023-05-14T11:48:42;2.40;;;2.03;;
13085;SDS011;6609;49.882;8.664;2023-05-14T11:51:09;2.20;;;2.00;;
13085;SDS011;6609;49.882;8.664;2023-05-14T11:53:36;2.30;;;2.10;;
13085;SDS011;6609;49.882;8.664;2023-05-14T11:56:11;3.77;;;2.17;;
13085;SDS011;6609;49.882;8.664;2023-05-14T11:58:38;2.37;;;1.90;;
13085;SDS011;6609;49.882;8.664;2023-05-14T12:01:05;2.77;;;2.10;;
13085;SDS011;6609;49.882;8.664;2023-05-14T12:03:32;6.40;;;2.40;;
13085;SDS011;6609;49.882;8.664;2023-05-14T12:06:00;2.53;;;1.90;;
13085;SDS011;6609;49.882;8.664;2023-05-14T12:08:31;2.57;;;2.30;;
13085;SDS011;6609;49.882;8.664;2023-05-14T12:10:58;2.93;;;2.30;;
13085;SDS011;6609;49.882;8.664;2023-05-14T12:13:27;2.43;;;2.23;;
13085;SDS011;6609;49.882;8.664;2023-05-14T12:15:55;2.10;;;1.90;;
13085;SDS011;6609;49.882;8.664;2023-05-14T12:18:24;2.97;;;2.40;;
13085;SDS011;6609;49.882;8.664;2023-05-14T12:20:52;4.40;;;2.50;;
13085;SDS011;6609;49.882;8.664;2023-05-14T12:23:23;2.60;;;2.33;;
13085;SDS011;6609;49.882;8.664;2023-05-14T12:25:51;3.23;;;2.23;;
13085;SDS011;6609;49.882;8.664;2023-05-14T12:28:18;2.57;;;2.20;;
13085;SDS011;6609;49.882;8.664;2023-05-14T12:30:46;3.00;;;2.40;;
13085;SDS011;6609;49.882;8.664;2023-05-14T12:33:13;3.20;;;2.60;;
13085;SDS011;6609;49.882;8.664;2023-05-14T12:35:40;2.80;;;2.20;;
13085;SDS011;6609;49.882;8.664;2023-05-14T12:38:07;4.47;;;2.53;;
13085;SDS011;6609;49.882;8.664;2023-05-14T12:40:34;2.97;;;2.40;;
13085;SDS011;6609;49.882;8.664;2023-05-14T12:43:01;3.33;;;2.93;;
13085;SDS011;6609;49.882;8.664;2023-05-14T12:45:28;2.97;;;2.70;;
13085;SDS011;6609;49.882;8.664;2023-05-14T12:47:57;2.63;;;2.43;;
13085;SDS011;6609;49.882;8.664;2023-05-14T12:50:24;3.67;;;2.60;;
13085;SDS011;6609;49.882;8.664;2023-05-14T12:52:51;3.83;;;2.60;;
13085;SDS011;6609;49.882;8.664;2023-05-14T12:55:18;2.97;;;2.60;;
13085;SDS011;6609;49.882;8.664;2023-05-14T12:57:45;2.67;;;2.20;;
13085;SDS011;6609;49.882;8.664;2023-05-14T13:00:12;2.90;;;2.60;;
13085;SDS011;6609;49.882;8.664;2023-05-14T13:02:39;3.10;;;2.47;;
13085;SDS011;6609;49.882;8.664;2023-05-14T13:05:08;3.27;;;2.30;;
13085;SDS011;6609;49.882;8.664;2023-05-14T13:07:35;3.47;;;2.60;;
13085;SDS011;6609;49.882;8.664;2023-05-14T13:10:02;2.97;;;2.30;;
13085;SDS011;6609;49.882;8.664;2023-05-14T13:12:30;3.30;;;2.60;;
13085;SDS011;6609;49.882;8.664;2023-05-14T13:14:57;2.90;;;2.50;;
13085;SDS011;6609;49.882;8.664;2023-05-14T13:17:24;2.53;;;2.27;;
13085;SDS011;6609;49.882;8.664;2023-05-14T13:19:51;2.37;;;2.17;;
13085;SDS011;6609;49.882;8.664;2023-05-14T13:22:19;3.23;;;2.33;;
13085;SDS011;6609;49.882;8.664;2023-05-14T13:24:46;2.17;;;1.97;;
13085;SDS011;6609;49.882;8.664;2023-05-14T13:27:13;3.93;;;2.23;;
13085;SDS011;6609;49.882;8.664;2023-05-14T13:29:40;2.23;;;2.03;;
13085;SDS011;6609;49.882;8.664;2023-05-14T13:32:06;3.30;;;2.13;;
13085;SDS011;6609;49.882;8.664;2023-05-14T13:34:34;2.87;;;2.13;;
13085;SDS011;6609;49.882;8.664;2023-05-14T13:37:00;2.13;;;1.93;;
13085;SDS011;6609;49.882;8.664;2023-05-14T13:39:29;2.20;;;2.00;;
13085;SDS011;6609;49.882;8.664;2023-05-14T13:41:55;2.13;;;1.70;;
13085;SDS011;6609;49.882;8.664;2023-05-14T13:44:22;3.40;;;2.00;;
13085;SDS011;6609;49.882;8.664;2023-05-14T13:46:49;2.40;;;2.20;;
13085;SDS011;6609;49.882;8.664;2023-05-14T13:49:16;2.00;;;1.80;;
13085;SDS011;6609;49.882;8.664;2023-05-14T13:51:43;2.80;;;2.20;;
13085;SDS011;6609;49.882;8.664;2023-05-14T13:54:09;2.90;;;2.00;;
13085;SDS011;6609;49.882;8.664;2023-05-14T13:56:37;2.50;;;2.20;;
13085;SDS011;6609;49.882;8.664;2023-05-14T13:59:04;2.63;;;2.43;;
13085;SDS011;6609;49.882;8.664;2023-05-14T14:01:31;2.77;;;2.07;;
13085;SDS011;6609;49.882;8.664;2023-05-14T14:03:58;3.50;;;2.07;;
13085;SDS011;6609;49.882;8.664;2023-05-14T14:06:25;2.97;;;2.07;;
13085;SDS011;6609;49.882;8.664;2023-05-14T14:08:52;2.23;;;1.93;;
13085;SDS011;6609;49.882;8.664;2023-05-14T14:11:19;3.20;;;2.37;;
13085;SDS011;6609;49.882;8.664;2023-05-14T14:13:49;2.50;;;2.27;;
13085;SDS011;6609;49.882;8.664;2023-05-14T14:16:16;2.50;;;2.30;;
13085;SDS011;6609;49.882;8.664;2023-05-14T14:18:43;2.40;;;2.10;;
13085;SDS011;6609;49.882;8.664;2023-05-14T14:21:09;2.80;;;2.00;;
13085;SDS011;6609;49.882;8.664;2023-05-14T14:23:36;1.83;;;1.73;;
13085;SDS011;6609;49.882;8.664;2023-05-14T14:26:04;1.77;;;1.67;;
13085;SDS011;6609;49.882;8.664;2023-05-14T14:28:31;2.57;;;2.23;;
13085;SDS011;6609;49.882;8.664;2023-05-14T14:30:59;2.40;;;2.07;;
13085;SDS011;6609;49.882;8.664;2023-05-14T14:33:26;2.00;;;1.80;;
13085;SDS011;6609;49.882;8.664;2023-05-14T14:35:52;2.80;;;1.77;;
13085;SDS011;6609;49.882;8.664;2023-05-14T14:38:20;1.87;;;1.67;;
13085;SDS011;6609;49.882;8.664;2023-05-14T14:40:46;2.93;;;2.30;;
13085;SDS011;6609;49.882;8.664;2023-05-14T14:43:13;2.27;;;2.07;;
13085;SDS011;6609;49.882;8.664;2023-05-14T14:45:40;3.40;;;2.07;;
13085;SDS011;6609;49.882;8.664;2023-05-14T14:50:54;2.13;;;1.73;;
13085;SDS011;6609;49.882;8.664;2023-05-14T14:53:21;2.20;;;2.00;;
13085;SDS011;6609;49.882;8.664;2023-05-14T14:55:50;2.87;;;2.37;;
13085;SDS011;6609;49.882;8.664;2023-05-14T14:58:17;2.67;;;2.10;;
13085;SDS011;6609;49.882;8.664;2023-05-14T15:00:45;2.10;;;1.90;;
13085;SDS011;6609;49.882;8.664;2023-05-14T15:03:11;2.77;;;2.20;;
13085;SDS011;6609;49.882;8.664;2023-05-14T15:05:40;3.30;;;1.97;;
13085;SDS011;6609;49.882;8.664;2023-05-14T15:08:07;3.10;;;2.07;;